createdAt,value
2024-02-13T00:02:19.328Z,1.58
2024-02-13T00:04:50.242Z,1.52
2024-02-13T00:07:20.341Z,1.48
2024-02-13T00:09:50.172Z,1.48
2024-02-13T00:12:19.913Z,1.49
2024-02-13T00:14:52.753Z,1.51
2024-02-13T00:17:22.699Z,1.49
2024-02-13T00:19:53.932Z,1.45
2024-02-13T00:22:23.751Z,1.38
2024-02-13T00:24:53.858Z,1.34
2024-02-13T00:27:23.740Z,1.33
2024-02-13T00:29:56.102Z,1.35
2024-02-13T00:32:25.942Z,1.37
2024-02-13T00:34:56.760Z,1.41
2024-02-13T00:37:27.008Z,1.44
2024-02-13T00:39:57.223Z,1.46
2024-02-13T00:42:27.620Z,1.47
2024-02-13T00:45:01.961Z,1.49
2024-02-13T00:47:32.844Z,1.48
2024-02-13T00:50:03.008Z,1.47
2024-02-13T00:52:33.686Z,1.48
2024-02-13T00:55:04.363Z,1.52
2024-02-13T00:57:34.117Z,1.59
2024-02-13T01:00:10.840Z,1.66
2024-02-13T01:02:40.789Z,1.68
2024-02-13T01:05:11.126Z,1.68
2024-02-13T01:07:41.499Z,1.70
2024-02-13T01:10:13.153Z,1.72
2024-02-13T01:12:42.932Z,1.74
2024-02-13T01:15:18.628Z,1.75
2024-02-13T01:17:48.567Z,1.76
2024-02-13T01:20:19.876Z,1.75
2024-02-13T01:22:49.637Z,1.74
2024-02-13T01:25:19.452Z,1.75
2024-02-13T01:27:49.450Z,1.73
2024-02-13T01:30:21.869Z,1.70
2024-02-13T01:32:51.721Z,1.67
2024-02-13T01:35:21.646Z,1.67
2024-02-13T01:37:51.621Z,1.65
2024-02-13T01:40:21.573Z,1.63
2024-02-13T01:42:52.100Z,1.61
2024-02-13T01:45:25.666Z,1.58
2024-02-13T01:47:56.202Z,1.57
2024-02-13T01:50:28.909Z,1.58
2024-02-13T01:52:58.691Z,1.59
2024-02-13T01:55:30.997Z,1.60
2024-02-13T01:58:03.618Z,1.63
2024-02-13T02:00:36.492Z,1.67
2024-02-13T02:03:07.690Z,1.74
2024-02-13T02:05:37.840Z,1.80
2024-02-13T02:08:08.635Z,1.83
2024-02-13T02:10:39.841Z,1.85
2024-02-13T02:13:09.618Z,1.89
2024-02-13T02:15:42.507Z,1.92
2024-02-13T02:18:13.991Z,1.94
2024-02-13T02:20:46.113Z,1.88
2024-02-13T02:23:15.994Z,1.78
2024-02-13T02:25:48.532Z,1.67
2024-02-13T02:28:19.296Z,1.55
2024-02-13T02:30:50.041Z,1.43
2024-02-13T02:33:19.855Z,1.34
2024-02-13T02:35:50.007Z,1.26
2024-02-13T02:38:20.251Z,1.21
2024-02-13T02:40:52.610Z,1.17
2024-02-13T02:43:22.532Z,1.13
2024-02-13T02:45:52.404Z,1.13
2024-02-13T02:48:22.541Z,1.10
2024-02-13T02:50:52.316Z,1.12
2024-02-13T02:53:22.232Z,1.14
2024-02-13T02:55:52.605Z,1.22
2024-02-13T02:58:22.750Z,1.28
2024-02-13T03:00:53.567Z,1.32
2024-02-13T03:03:23.745Z,1.38
2024-02-13T03:05:55.903Z,1.43
2024-02-13T03:08:25.835Z,1.46
2024-02-13T03:10:58.158Z,1.49
2024-02-13T03:13:27.865Z,1.56
2024-02-13T03:15:57.887Z,1.61
2024-02-13T03:18:28.150Z,1.65
2024-02-13T03:20:58.335Z,1.66
2024-02-13T03:23:30.216Z,1.63
2024-02-13T03:26:02.580Z,1.63
2024-02-13T03:28:32.268Z,1.62
2024-02-13T03:31:01.993Z,1.62
2024-02-13T03:33:32.190Z,1.66
2024-02-13T03:36:02.633Z,1.73
2024-02-13T03:38:32.407Z,1.86
2024-02-13T03:41:04.757Z,1.99
2024-02-13T03:43:34.468Z,2.11
2024-02-13T03:46:04.478Z,2.19
2024-02-13T03:48:34.579Z,2.24
2024-02-13T03:51:05.016Z,2.30
2024-02-13T03:53:36.920Z,2.36
2024-02-13T03:56:10.136Z,2.45
2024-02-13T03:58:39.899Z,2.54
2024-02-13T04:01:10.043Z,2.65
2024-02-13T04:03:42.524Z,2.76
2024-02-13T04:06:13.503Z,2.86
2024-02-13T04:08:46.003Z,2.95
2024-02-13T04:11:18.617Z,3.02
2024-02-13T04:13:48.472Z,3.09
2024-02-13T04:16:18.247Z,3.14
2024-02-13T04:18:48.130Z,3.18
2024-02-13T04:21:21.333Z,3.21
2024-02-13T04:23:52.695Z,3.22
2024-02-13T04:26:35.696Z,3.24
2024-02-13T04:29:07.060Z,3.24
2024-02-13T04:31:39.873Z,3.21
2024-02-13T04:34:10.404Z,3.16
2024-02-13T04:36:41.635Z,3.09
2024-02-13T04:39:12.808Z,3.00
2024-02-13T04:41:46.196Z,2.91
2024-02-13T04:44:16.297Z,2.80
2024-02-13T04:46:46.058Z,2.70
2024-02-13T04:49:15.908Z,2.64
2024-02-13T04:51:45.716Z,2.59
2024-02-13T04:54:15.538Z,2.53
2024-02-13T04:56:50.375Z,2.45
2024-02-13T04:59:22.665Z,2.40
2024-02-13T05:01:53.458Z,2.34
2024-02-13T05:04:50.409Z,2.28
2024-02-13T05:07:28.178Z,2.17
2024-02-13T05:09:58.301Z,2.11
2024-02-13T05:12:30.671Z,2.01
2024-02-13T05:15:01.022Z,1.94
2024-02-13T05:17:31.804Z,1.86
2024-02-13T05:20:02.104Z,1.81
2024-02-13T05:22:31.860Z,1.75
2024-02-13T05:25:02.453Z,1.70
2024-02-13T05:27:35.635Z,1.65
2024-02-13T05:30:06.290Z,1.62
2024-02-13T05:32:36.129Z,1.62
2024-02-13T05:35:06.057Z,1.62
2024-02-13T05:37:37.565Z,1.63
2024-02-13T05:40:11.401Z,1.63
2024-02-13T05:42:44.264Z,1.58
2024-02-13T05:45:14.279Z,1.55
2024-02-13T05:47:44.093Z,1.51
2024-02-13T05:50:17.834Z,1.50
2024-02-13T05:52:49.440Z,1.51
2024-02-13T05:55:19.701Z,1.55
2024-02-13T05:57:52.090Z,1.55
2024-02-13T06:00:26.006Z,1.54
2024-02-13T06:02:56.686Z,1.54
2024-02-13T06:05:27.473Z,1.51
2024-02-13T06:07:57.423Z,1.52
2024-02-13T06:10:27.343Z,1.58
2024-02-13T06:12:59.758Z,1.59
2024-02-13T06:15:29.636Z,1.58
2024-02-13T06:17:59.461Z,1.60
2024-02-13T06:20:29.294Z,1.59
2024-02-13T06:22:59.217Z,1.57
2024-02-13T06:25:29.127Z,1.57
2024-02-13T06:28:01.512Z,1.55
2024-02-13T06:30:33.337Z,1.55
2024-02-13T06:33:04.383Z,1.53
2024-02-13T06:35:34.922Z,1.56
2024-02-13T06:38:05.003Z,1.58
2024-02-13T06:40:35.545Z,1.61
2024-02-13T06:43:08.156Z,1.65
2024-02-13T06:45:38.079Z,1.66
2024-02-13T06:48:08.534Z,1.68
2024-02-13T06:50:38.499Z,1.74
2024-02-13T06:53:08.830Z,1.80
2024-02-13T06:55:38.577Z,1.90
2024-02-13T06:58:14.764Z,1.99
2024-02-13T07:00:49.001Z,2.07
2024-02-13T07:03:18.846Z,2.13
2024-02-13T07:05:48.857Z,2.16
2024-02-13T07:08:18.939Z,2.19
2024-02-13T07:10:51.238Z,2.26
2024-02-13T07:13:23.982Z,2.35
2024-02-13T07:15:54.486Z,2.47
2024-02-13T07:18:27.908Z,2.59
2024-02-13T07:21:03.232Z,2.69
2024-02-13T07:23:37.949Z,2.79
2024-02-13T07:26:07.926Z,2.86
2024-02-13T07:28:40.482Z,2.88
2024-02-13T07:31:12.307Z,2.88
2024-02-13T07:33:43.022Z,2.92
2024-02-13T07:36:13.141Z,2.94
2024-02-13T07:38:43.260Z,2.94
2024-02-13T07:41:15.143Z,2.92
2024-02-13T07:43:47.898Z,2.93
2024-02-13T07:46:18.941Z,2.92
2024-02-13T07:48:53.286Z,2.94
2024-02-13T07:51:23.241Z,2.98
2024-02-13T07:53:53.092Z,3.07
2024-02-13T07:56:30.103Z,3.28
2024-02-13T07:59:03.212Z,3.57
2024-02-13T08:01:32.972Z,3.74
2024-02-13T08:04:02.900Z,3.90
2024-02-13T08:06:33.035Z,4.05
2024-02-13T08:09:08.107Z,4.18
2024-02-13T08:11:38.119Z,4.26
2024-02-13T08:14:10.795Z,4.29
2024-02-13T08:16:40.689Z,4.28
2024-02-13T08:19:24.900Z,4.34
2024-02-13T08:23:27.514Z,4.40
2024-02-13T08:26:02.970Z,4.45
2024-02-13T08:28:57.258Z,4.55
2024-02-13T08:31:34.872Z,4.59
2024-02-13T08:34:10.101Z,4.76
2024-02-13T08:57:04.166Z,5.27
2024-02-13T09:01:28.353Z,5.41
2024-02-13T09:03:58.153Z,5.87
2024-02-13T09:06:28.107Z,6.41
2024-02-13T09:09:00.897Z,7.25
2024-02-13T09:11:33.118Z,7.51
2024-02-13T09:14:03.583Z,7.52
2024-02-13T09:16:36.405Z,7.42
2024-02-13T09:19:08.582Z,7.29
2024-02-13T09:21:38.712Z,7.14
2024-02-13T09:24:13.394Z,7.02
2024-02-13T09:26:43.173Z,6.94
2024-02-13T09:29:13.360Z,6.88
2024-02-13T09:31:47.252Z,6.86
2024-02-13T09:34:17.864Z,7.07
2024-02-13T09:36:47.870Z,7.57
2024-02-13T09:39:20.187Z,8.21
2024-02-13T09:41:52.272Z,9.19
2024-02-13T09:44:24.819Z,10.28
2024-02-13T09:46:56.248Z,11.04
2024-02-13T09:49:26.844Z,11.63
2024-02-13T09:52:07.336Z,12.45
2024-02-13T09:54:46.102Z,13.40
2024-02-13T09:57:28.731Z,14.09
2024-02-13T10:00:25.895Z,14.10
2024-02-13T10:06:50.003Z,14.30
2024-02-13T10:10:16.344Z,13.74
2024-02-13T10:12:56.478Z,13.83
2024-02-13T10:19:03.732Z,14.00
2024-02-13T10:24:23.966Z,14.18
2024-02-13T10:27:45.946Z,13.96
2024-02-13T10:31:46.412Z,13.28
2024-02-13T10:35:15.901Z,12.93
2024-02-13T10:38:36.773Z,12.56
2024-02-13T10:51:33.698Z,11.35
2024-02-13T10:55:42.651Z,10.71
2024-02-13T10:59:27.465Z,10.50
2024-02-13T11:02:03.083Z,10.27
2024-02-13T11:08:08.706Z,10.13
2024-02-13T11:11:05.347Z,10.19
2024-02-13T11:14:28.520Z,10.18
2024-02-13T11:17:04.458Z,10.03
2024-02-13T11:19:45.993Z,9.90
2024-02-13T11:22:19.161Z,9.89
2024-02-13T11:24:53.804Z,9.90
2024-02-13T11:27:30.123Z,9.89
2024-02-13T11:30:04.006Z,9.92
2024-02-13T11:33:26.068Z,9.94
2024-02-13T11:39:15.803Z,9.70
2024-02-13T11:41:45.567Z,9.63
2024-02-13T11:44:23.752Z,9.59
2024-02-13T11:46:59.958Z,9.56
2024-02-13T11:49:53.282Z,9.51
2024-02-13T11:52:26.772Z,9.45
2024-02-13T12:37:02.905Z,9.85
2024-02-13T12:39:38.047Z,9.99
2024-02-13T12:42:17.159Z,10.11
2024-02-13T12:44:49.740Z,10.25
2024-02-13T12:47:20.800Z,10.32
2024-02-13T12:49:59.415Z,10.36
2024-02-13T12:52:29.220Z,10.36
2024-02-13T12:54:59.888Z,10.35
2024-02-13T12:57:32.335Z,10.32
2024-02-13T13:00:02.299Z,10.29
2024-02-13T13:02:34.314Z,10.27
2024-02-13T13:05:07.609Z,10.23
2024-02-13T13:07:41.904Z,10.13
2024-02-13T13:10:14.825Z,10.00
2024-02-13T13:12:46.254Z,9.93
2024-02-13T13:15:22.625Z,9.87
2024-02-13T13:17:56.055Z,9.85
2024-02-13T13:20:29.622Z,9.75
2024-02-13T13:23:02.550Z,9.62
2024-02-13T13:25:33.133Z,9.50
2024-02-13T13:28:06.804Z,9.36
2024-02-13T13:30:37.179Z,9.24
2024-02-13T13:33:08.040Z,9.14
2024-02-13T13:35:41.468Z,9.10
2024-02-13T13:38:11.461Z,9.05
2024-02-13T13:40:41.379Z,9.02
2024-02-13T13:43:12.407Z,9.01
2024-02-13T13:45:55.121Z,9.00
2024-02-13T13:48:26.568Z,8.98
2024-02-13T13:50:59.485Z,8.98
2024-02-13T13:53:29.267Z,8.96
2024-02-13T13:55:59.471Z,8.94
2024-02-13T13:58:31.318Z,8.96
2024-02-13T14:01:01.457Z,9.00
2024-02-13T14:03:33.354Z,9.04
2024-02-13T14:06:06.176Z,9.11
2024-02-13T14:08:39.816Z,9.15
2024-02-13T14:11:10.004Z,9.23
2024-02-13T14:13:39.978Z,9.33
2024-02-13T14:16:10.438Z,9.40
2024-02-13T14:18:40.706Z,9.43
2024-02-13T14:21:13.997Z,9.41
2024-02-13T14:23:44.219Z,9.37
2024-02-13T14:26:14.573Z,9.32
2024-02-13T14:28:44.303Z,9.24
2024-02-13T14:31:14.056Z,9.15
2024-02-13T14:33:44.012Z,9.11
2024-02-13T14:36:16.872Z,9.12
2024-02-13T14:38:47.001Z,9.16
2024-02-13T14:41:17.964Z,9.22
2024-02-13T14:43:49.225Z,9.30
2024-02-13T14:46:18.967Z,9.35
2024-02-13T14:48:49.922Z,9.41
2024-02-13T14:51:23.720Z,9.49
2024-02-13T14:53:53.607Z,9.56
2024-02-13T14:56:23.461Z,9.68
2024-02-13T14:58:53.249Z,9.81
2024-02-13T15:01:26.169Z,9.91
2024-02-13T15:03:56.250Z,9.96
2024-02-13T15:06:28.759Z,9.98
2024-02-13T15:08:58.686Z,9.95
2024-02-13T15:11:28.721Z,9.89
2024-02-13T15:14:00.701Z,9.87
2024-02-13T15:16:31.570Z,9.87
2024-02-13T15:19:04.765Z,9.87
2024-02-13T15:21:37.243Z,9.82
2024-02-13T15:24:09.653Z,9.77
2024-02-13T15:26:39.760Z,9.74
2024-02-13T15:29:11.321Z,9.71
2024-02-13T15:31:42.106Z,9.71
2024-02-13T15:34:12.147Z,9.68
2024-02-13T15:37:02.386Z,9.68
2024-02-13T15:39:45.547Z,9.68
2024-02-13T15:42:27.754Z,9.69
2024-02-13T15:45:10.115Z,9.70
2024-02-13T15:47:40.234Z,9.65
2024-02-13T15:50:12.534Z,9.61
2024-02-13T15:52:44.968Z,9.56
2024-02-13T15:55:18.240Z,9.52
2024-02-13T15:57:48.459Z,9.45
2024-02-13T16:00:21.761Z,9.41
2024-02-13T16:02:51.654Z,9.35
2024-02-13T16:05:27.746Z,9.31
2024-02-13T16:08:00.714Z,9.28
2024-02-13T16:10:33.169Z,9.24
2024-02-13T16:13:03.387Z,9.19
2024-02-13T16:15:33.771Z,9.14
2024-02-13T16:18:04.380Z,9.10
2024-02-13T16:20:34.456Z,9.07
2024-02-13T16:23:10.153Z,9.03
2024-02-13T16:25:39.942Z,9.00
2024-02-13T16:28:10.090Z,8.96
2024-02-13T16:33:13.307Z,8.91
2024-02-13T16:35:43.151Z,8.87
2024-02-13T16:38:16.720Z,8.84
2024-02-13T16:40:47.727Z,8.80
2024-02-13T16:43:17.665Z,8.79
2024-02-13T16:45:47.958Z,8.76
2024-02-13T16:48:18.212Z,8.74
2024-02-13T16:50:48.176Z,8.72
2024-02-13T16:53:22.967Z,8.70
2024-02-13T16:55:52.768Z,8.66
2024-02-13T16:58:22.849Z,8.65
2024-02-13T17:00:53.816Z,8.61
2024-02-13T17:03:23.796Z,8.58
2024-02-13T17:05:54.223Z,8.56
2024-02-13T17:08:26.751Z,8.53
2024-02-13T17:10:56.512Z,8.51
2024-02-13T17:13:26.291Z,8.50
2024-02-13T17:15:56.791Z,8.49
2024-02-13T17:18:26.893Z,8.45
2024-02-13T17:20:57.294Z,8.45
2024-02-13T17:23:29.744Z,8.41
2024-02-13T17:25:59.532Z,8.39
2024-02-13T17:28:29.370Z,8.35
2024-02-13T17:30:59.321Z,8.34
2024-02-13T17:33:29.292Z,8.33
2024-02-13T17:36:01.190Z,8.29
2024-02-13T17:38:37.553Z,8.27
2024-02-13T17:41:09.229Z,8.24
2024-02-13T17:43:39.188Z,8.22
2024-02-13T17:46:09.204Z,8.19
2024-02-13T17:48:39.676Z,8.18
2024-02-13T17:51:09.974Z,8.15
2024-02-13T17:53:42.573Z,8.15
2024-02-13T17:56:13.853Z,8.14
2024-02-13T17:58:43.806Z,8.14
2024-02-13T18:01:14.751Z,8.13
2024-02-13T18:03:44.796Z,8.15
2024-02-13T18:06:15.542Z,8.16
2024-02-13T18:08:48.042Z,8.14
2024-02-13T18:11:17.872Z,8.16
2024-02-13T18:13:47.606Z,8.16
2024-02-13T18:16:17.521Z,8.17
2024-02-13T18:18:48.445Z,8.18
2024-02-13T18:21:18.605Z,8.18
2024-02-13T18:23:55.520Z,8.18
2024-02-13T18:26:26.009Z,8.18
2024-02-13T18:28:55.895Z,8.15
2024-02-13T18:31:26.365Z,8.11
2024-02-13T18:33:56.364Z,8.05
2024-02-13T18:36:28.907Z,8.01
2024-02-13T18:39:01.343Z,7.99
2024-02-13T18:41:31.239Z,7.94
2024-02-13T18:44:01.047Z,7.93
2024-02-13T18:46:32.322Z,7.89
2024-02-13T18:49:02.554Z,7.87
2024-02-13T18:51:32.443Z,7.84
2024-02-13T18:54:05.103Z,7.82
2024-02-13T18:56:35.935Z,7.79
2024-02-13T18:59:06.452Z,7.77
2024-02-13T19:01:36.269Z,7.77
2024-02-13T19:04:06.189Z,7.77
2024-02-13T19:06:36.007Z,7.76
2024-02-13T19:09:09.433Z,7.76
2024-02-13T19:11:39.572Z,7.75
2024-02-13T19:14:12.352Z,7.73
2024-02-13T19:16:45.995Z,7.72
2024-02-13T19:19:19.523Z,7.71
2024-02-13T19:21:49.454Z,7.70
2024-02-13T19:24:23.233Z,7.70
2024-02-13T19:26:53.980Z,7.68
2024-02-13T19:29:23.828Z,7.68
2024-02-13T19:31:53.766Z,7.67
2024-02-13T19:34:28.116Z,7.66
2024-02-13T19:36:58.366Z,7.65
2024-02-13T19:39:34.662Z,7.62
2024-02-13T19:42:05.468Z,7.62
2024-02-13T19:44:35.379Z,7.61
2024-02-13T19:47:05.137Z,7.61
2024-02-13T19:49:34.908Z,7.61
2024-02-13T19:52:04.810Z,7.61
2024-02-13T19:54:37.361Z,7.58
2024-02-13T19:57:07.910Z,7.57
2024-02-13T19:59:39.067Z,7.56
2024-02-13T20:02:09.296Z,7.55
2024-02-13T20:04:39.097Z,7.54
2024-02-13T20:07:09.002Z,7.53
2024-02-13T20:09:42.347Z,7.52
2024-02-13T20:12:12.277Z,7.50
2024-02-13T20:14:42.187Z,7.49
2024-02-13T20:17:12.074Z,7.49
2024-02-13T20:19:43.840Z,7.48
2024-02-13T20:22:14.731Z,7.46
2024-02-13T20:24:47.310Z,7.45
2024-02-13T20:27:17.449Z,7.44
2024-02-13T20:29:47.622Z,7.41
2024-02-13T20:32:17.681Z,7.40
2024-02-13T20:34:47.839Z,7.40
2024-02-13T20:37:20.629Z,7.38
2024-02-13T20:39:53.557Z,7.36
2024-02-13T20:42:25.085Z,7.35
2024-02-13T20:45:01.331Z,7.33
2024-02-13T20:47:37.495Z,7.31
2024-02-13T20:50:08.311Z,7.28
2024-02-13T20:52:38.470Z,7.27
2024-02-13T20:55:14.929Z,7.26
2024-02-13T20:57:45.072Z,7.24
2024-02-13T21:00:16.676Z,7.23
2024-02-13T21:02:49.310Z,7.22
2024-02-13T21:05:23.011Z,7.23
2024-02-13T21:07:52.866Z,7.24
2024-02-13T21:10:25.390Z,7.24
2024-02-13T21:12:56.445Z,7.25
2024-02-13T21:15:26.360Z,7.24
2024-02-13T21:17:56.267Z,7.24
2024-02-13T21:20:31.254Z,7.23
2024-02-13T21:23:13.712Z,7.23
2024-02-13T21:25:46.422Z,7.25
2024-02-13T21:28:16.233Z,7.27
2024-02-13T21:30:46.453Z,7.29
2024-02-13T21:33:16.668Z,7.29
2024-02-13T21:35:46.672Z,7.31
2024-02-13T21:38:16.563Z,7.31
2024-02-13T21:40:49.246Z,7.33
2024-02-13T21:43:19.207Z,7.34
2024-02-13T21:45:49.335Z,7.35
2024-02-13T21:48:19.245Z,7.37
2024-02-13T21:50:49.240Z,7.37
2024-02-13T21:53:19.067Z,7.38
2024-02-13T21:55:51.580Z,7.39
2024-02-13T21:58:21.564Z,7.38
2024-02-13T22:00:52.100Z,7.37
2024-02-13T22:03:21.973Z,7.39
2024-02-13T22:05:51.845Z,7.40
2024-02-13T22:08:21.720Z,7.41
2024-02-13T22:10:54.756Z,7.42
2024-02-13T22:13:24.608Z,7.44
2024-02-13T22:15:56.040Z,7.44
2024-02-13T22:18:26.747Z,7.44
2024-02-13T22:20:56.906Z,7.43
2024-02-13T22:23:26.894Z,7.45
2024-02-13T22:26:04.990Z,7.46
2024-02-13T22:28:34.768Z,7.47
2024-02-13T22:31:04.716Z,7.47
2024-02-13T22:33:34.693Z,7.48
2024-02-13T22:36:04.926Z,7.48
2024-02-13T22:38:34.767Z,7.49
2024-02-13T22:41:11.177Z,7.52
2024-02-13T22:43:41.044Z,7.53
2024-02-13T22:46:10.834Z,7.54
2024-02-13T22:48:41.616Z,7.56
2024-02-13T22:51:12.009Z,7.56
2024-02-13T22:53:41.936Z,7.58
2024-02-13T22:56:14.568Z,7.61
2024-02-13T22:58:44.392Z,7.63
2024-02-13T23:01:15.572Z,7.63
2024-02-13T23:03:45.385Z,7.65
2024-02-13T23:06:15.375Z,7.67
2024-02-13T23:08:45.516Z,7.68
2024-02-13T23:11:18.044Z,7.71
2024-02-13T23:13:51.046Z,7.72
2024-02-13T23:16:24.666Z,7.74
2024-02-13T23:18:55.202Z,7.76
2024-02-13T23:21:25.548Z,7.78
2024-02-13T23:23:55.371Z,7.79
2024-02-13T23:26:27.846Z,7.80
2024-02-13T23:28:57.790Z,7.82
2024-02-13T23:31:27.994Z,7.82
2024-02-13T23:33:58.015Z,7.83
2024-02-13T23:36:27.936Z,7.85
2024-02-13T23:38:57.804Z,7.87
2024-02-13T23:41:30.229Z,7.87
2024-02-13T23:44:00.732Z,7.88
2024-02-13T23:46:30.652Z,7.89
2024-02-13T23:49:00.773Z,7.90
2024-02-13T23:51:30.726Z,7.90
2024-02-13T23:54:00.836Z,7.91
2024-02-13T23:56:33.386Z,7.93
2024-02-13T23:59:04.274Z,7.95
